createdAt,value
2022-12-01T00:01:10.323Z,15.57
2022-12-01T00:03:37.370Z,14.25
2022-12-01T00:06:07.184Z,16.27
2022-12-01T00:08:34.064Z,16.15
2022-12-01T00:11:12.076Z,16.42
2022-12-01T00:13:38.517Z,16.08
2022-12-01T00:16:12.691Z,15.38
2022-12-01T00:18:39.299Z,16.35
2022-12-01T00:21:06.019Z,17.13
2022-12-01T00:23:32.603Z,16.70
2022-12-01T00:26:04.223Z,16.88
2022-12-01T00:28:30.746Z,15.95
2022-12-01T00:30:57.178Z,15.35
2022-12-01T00:33:23.642Z,17.02
2022-12-01T00:35:50.100Z,17.15
2022-12-01T00:38:16.629Z,17.73
2022-12-01T00:40:43.025Z,17.48
2022-12-01T00:43:09.529Z,17.20
2022-12-01T00:45:36.010Z,18.55
2022-12-01T00:48:02.504Z,17.25
2022-12-01T00:50:28.951Z,17.35
2022-12-01T00:52:55.354Z,18.33
2022-12-01T00:55:21.799Z,18.27
2022-12-01T00:57:48.833Z,18.23
2022-12-01T01:00:17.060Z,17.80
2022-12-01T01:02:43.673Z,18.40
2022-12-01T01:05:10.170Z,19.33
2022-12-01T01:07:36.976Z,19.02
2022-12-01T01:10:04.124Z,17.90
2022-12-01T01:12:30.611Z,18.45
2022-12-01T01:14:57.014Z,18.27
2022-12-01T01:17:23.572Z,18.38
2022-12-01T01:19:50.227Z,18.42
2022-12-01T01:22:16.844Z,17.92
2022-12-01T01:24:43.508Z,19.85
2022-12-01T01:27:09.996Z,17.90
2022-12-01T01:29:36.820Z,17.85
2022-12-01T01:32:04.225Z,17.58
2022-12-01T01:34:30.822Z,18.35
2022-12-01T01:36:57.285Z,18.92
2022-12-01T01:39:23.760Z,18.42
2022-12-01T01:41:50.230Z,19.00
2022-12-01T01:44:50.639Z,18.25
2022-12-01T01:47:35.634Z,19.50
2022-12-01T01:50:14.208Z,19.45
2022-12-01T01:52:44.308Z,18.40
2022-12-01T01:55:11.599Z,19.50
2022-12-01T01:57:38.746Z,18.90
2022-12-01T02:00:11.594Z,18.85
2022-12-01T02:02:44.553Z,18.52
2022-12-01T02:05:23.965Z,18.92
2022-12-01T02:10:22.466Z,19.55
2022-12-01T02:13:15.842Z,19.75
2022-12-01T02:15:56.941Z,19.85
2022-12-01T02:18:54.394Z,20.45
2022-12-01T02:21:27.659Z,20.08
2022-12-01T02:24:05.617Z,21.77
2022-12-01T02:26:49.652Z,20.15
2022-12-01T02:29:43.996Z,19.95
2022-12-01T02:32:30.704Z,20.40
2022-12-01T02:35:02.171Z,20.10
2022-12-01T02:37:53.989Z,20.63
2022-12-01T02:40:26.772Z,20.17
2022-12-01T02:43:05.412Z,20.88
2022-12-01T02:45:54.335Z,20.95
2022-12-01T02:48:30.246Z,21.60
2022-12-01T02:50:59.773Z,20.65
2022-12-01T02:53:26.311Z,20.85
2022-12-01T02:55:54.632Z,20.13
2022-12-01T02:58:21.765Z,20.90
2022-12-01T03:01:24.629Z,21.98
2022-12-01T03:04:34.545Z,20.45
2022-12-01T03:07:13.123Z,20.30
2022-12-01T03:09:55.210Z,19.93
2022-12-01T03:12:40.056Z,20.83
2022-12-01T03:15:21.754Z,20.15
2022-12-01T03:18:19.204Z,21.67
2022-12-01T03:21:07.470Z,21.30
2022-12-01T03:23:37.821Z,21.27
2022-12-01T03:26:09.338Z,19.88
2022-12-01T03:28:48.654Z,18.77
2022-12-01T03:33:49.180Z,18.57
2022-12-01T03:36:40.417Z,18.60
2022-12-01T03:39:12.008Z,16.15
2022-12-01T03:41:43.430Z,17.73
2022-12-01T03:44:19.207Z,16.48
2022-12-01T03:46:54.066Z,15.80
2022-12-01T03:49:21.651Z,14.77
2022-12-01T03:52:11.071Z,16.10
2022-12-01T03:54:46.602Z,15.40
2022-12-01T03:57:24.132Z,15.20
2022-12-01T03:59:51.144Z,14.68
2022-12-01T04:02:18.295Z,15.65
2022-12-01T04:04:44.730Z,15.57
2022-12-01T04:07:13.383Z,15.48
2022-12-01T04:09:41.524Z,14.57
2022-12-01T04:12:29.385Z,15.52
2022-12-01T04:15:05.317Z,14.63
2022-12-01T04:17:32.212Z,14.10
2022-12-01T04:19:58.665Z,14.23
2022-12-01T04:22:25.272Z,13.23
2022-12-01T04:24:52.251Z,13.80
2022-12-01T04:27:19.407Z,13.50
2022-12-01T04:29:46.067Z,14.13
2022-12-01T04:32:13.496Z,13.10
2022-12-01T04:34:39.930Z,13.43
2022-12-01T04:37:07.263Z,13.02
2022-12-01T04:39:34.341Z,13.18
2022-12-01T04:42:00.753Z,14.07
2022-12-01T04:44:33.018Z,14.63
2022-12-01T04:47:01.231Z,14.45
2022-12-01T04:49:27.910Z,14.18
2022-12-01T04:51:54.486Z,13.65
2022-12-01T04:54:20.955Z,14.20
2022-12-01T04:56:47.432Z,14.00
2022-12-01T04:59:13.878Z,14.95
2022-12-01T05:01:40.563Z,14.80
2022-12-01T05:04:07.263Z,14.82
2022-12-01T05:06:33.751Z,14.32
2022-12-01T05:09:01.395Z,13.95
2022-12-01T05:11:29.406Z,14.07
2022-12-01T05:13:56.032Z,14.85
2022-12-01T05:16:25.404Z,15.50
2022-12-01T05:19:17.183Z,15.02
2022-12-01T05:21:45.047Z,14.73
2022-12-01T05:24:12.498Z,15.02
2022-12-01T05:26:39.825Z,15.50
2022-12-01T05:29:06.359Z,14.63
2022-12-01T05:31:32.903Z,15.30
2022-12-01T05:33:59.524Z,14.50
2022-12-01T05:36:25.974Z,16.10
2022-12-01T05:38:52.455Z,15.32
2022-12-01T05:41:18.940Z,14.90
2022-12-01T05:43:45.535Z,14.85
2022-12-01T05:46:12.021Z,15.35
2022-12-01T05:48:38.518Z,14.77
2022-12-01T05:51:13.047Z,15.38
2022-12-01T05:53:39.506Z,15.25
2022-12-01T05:56:07.301Z,15.73
2022-12-01T05:58:34.647Z,15.73
2022-12-01T06:01:01.260Z,15.80
2022-12-01T06:03:27.768Z,16.73
2022-12-01T06:05:54.241Z,15.13
2022-12-01T06:08:20.672Z,15.15
2022-12-01T06:10:47.187Z,16.38
2022-12-01T06:13:13.596Z,15.88
2022-12-01T06:15:40.055Z,15.20
2022-12-01T06:18:06.464Z,15.88
2022-12-01T06:20:32.894Z,15.82
2022-12-01T06:22:59.555Z,16.55
2022-12-01T06:25:26.002Z,15.75
2022-12-01T06:27:57.260Z,15.88
2022-12-01T06:30:23.755Z,16.17
2022-12-01T06:32:50.245Z,15.52
2022-12-01T06:35:16.735Z,16.10
2022-12-01T06:37:43.163Z,16.63
2022-12-01T06:40:10.288Z,16.20
2022-12-01T06:42:36.709Z,15.32
2022-12-01T06:45:03.228Z,16.63
2022-12-01T06:47:29.680Z,16.58
2022-12-01T06:49:56.082Z,16.65
2022-12-01T06:52:22.529Z,17.55
2022-12-01T06:54:49.188Z,16.90
2022-12-01T06:57:15.957Z,16.65
2022-12-01T06:59:42.687Z,17.27
2022-12-01T07:02:11.406Z,17.08
2022-12-01T07:04:37.945Z,17.33
2022-12-01T07:07:05.546Z,15.88
2022-12-01T07:09:32.005Z,16.98
2022-12-01T07:11:58.457Z,16.30
2022-12-01T07:14:26.561Z,16.45
2022-12-01T07:16:53.426Z,16.23
2022-12-01T07:19:20.030Z,15.85
2022-12-01T07:21:46.509Z,16.15
2022-12-01T07:24:13.300Z,16.17
2022-12-01T07:26:40.959Z,17.38
2022-12-01T07:29:09.040Z,15.38
2022-12-01T07:31:38.869Z,15.25
2022-12-01T07:34:05.641Z,15.95
2022-12-01T07:36:32.059Z,14.20
2022-12-01T07:38:58.510Z,14.52
2022-12-01T07:41:25.303Z,15.48
2022-12-01T07:43:51.864Z,14.80
2022-12-01T07:46:23.686Z,14.38
2022-12-01T07:48:51.518Z,13.60
2022-12-01T07:51:18.500Z,13.70
2022-12-01T07:53:46.014Z,13.15
2022-12-01T07:56:12.493Z,13.88
2022-12-01T07:58:39.170Z,13.40
2022-12-01T08:01:11.649Z,13.48
2022-12-01T08:03:38.540Z,14.40
2022-12-01T08:06:06.001Z,13.57
2022-12-01T08:08:34.092Z,14.32
2022-12-01T08:11:02.232Z,13.70
2022-12-01T08:13:28.838Z,14.02
2022-12-01T08:15:55.574Z,14.20
2022-12-01T08:18:24.552Z,13.77
2022-12-01T08:20:51.491Z,13.88
2022-12-01T08:23:18.200Z,14.32
2022-12-01T08:25:44.636Z,14.25
2022-12-01T08:28:11.021Z,14.77
2022-12-01T08:30:37.471Z,13.02
2022-12-01T08:33:03.889Z,14.27
2022-12-01T08:35:30.298Z,13.82
2022-12-01T08:37:56.757Z,13.07
2022-12-01T08:40:23.207Z,12.88
2022-12-01T08:42:51.893Z,13.10
2022-12-01T08:45:18.530Z,13.30
2022-12-01T08:47:44.981Z,12.82
2022-12-01T08:50:12.180Z,12.90
2022-12-01T08:52:38.627Z,12.23
2022-12-01T08:55:06.143Z,12.48
2022-12-01T08:57:32.604Z,13.60
2022-12-01T08:59:59.058Z,13.25
2022-12-01T09:02:25.661Z,12.65
2022-12-01T09:04:52.369Z,13.52
2022-12-01T09:07:24.584Z,13.48
2022-12-01T09:09:52.905Z,13.07
2022-12-01T09:12:19.723Z,12.88
2022-12-01T09:14:48.088Z,12.98
2022-12-01T09:17:15.359Z,13.23
2022-12-01T09:19:42.495Z,12.55
2022-12-01T09:22:09.661Z,13.98
2022-12-01T09:24:36.257Z,22.45
2022-12-01T09:27:03.391Z,12.35
2022-12-01T09:29:30.185Z,12.23
2022-12-01T09:31:57.664Z,11.73
2022-12-01T09:34:24.598Z,11.18
2022-12-01T09:36:50.989Z,12.15
2022-12-01T09:39:20.941Z,11.70
2022-12-01T09:41:50.917Z,11.27
2022-12-01T09:44:34.710Z,12.65
2022-12-01T09:47:20.010Z,11.70
2022-12-01T09:50:21.761Z,12.38
2022-12-01T09:52:57.952Z,12.25
2022-12-01T09:55:25.529Z,16.38
2022-12-01T09:57:53.759Z,26.10
2022-12-01T10:00:31.918Z,11.95
2022-12-01T10:03:22.150Z,16.50
2022-12-01T10:06:27.713Z,12.80
2022-12-01T10:08:45.435Z,11.85
2022-12-01T10:11:24.225Z,13.30
2022-12-01T10:13:50.643Z,11.85
2022-12-01T10:16:25.630Z,10.95
2022-12-01T10:19:08.837Z,10.52
2022-12-01T10:21:58.605Z,11.88
2022-12-01T10:24:47.757Z,11.45
2022-12-01T10:27:44.671Z,11.98
2022-12-01T10:30:19.063Z,10.93
2022-12-01T10:33:17.399Z,11.38
2022-12-01T10:35:43.878Z,12.30
2022-12-01T10:38:22.249Z,11.88
2022-12-01T10:40:50.708Z,12.73
2022-12-01T10:43:17.311Z,11.57
2022-12-01T10:45:45.428Z,11.07
2022-12-01T10:48:18.844Z,11.68
2022-12-01T10:50:53.228Z,11.65
2022-12-01T10:53:22.682Z,11.82
2022-12-01T10:56:02.135Z,11.70
2022-12-01T10:58:28.749Z,12.13
2022-12-01T11:01:00.077Z,12.23
2022-12-01T11:03:30.699Z,12.63
2022-12-01T11:06:00.346Z,12.15
2022-12-01T11:08:46.809Z,11.50
2022-12-01T11:11:39.967Z,12.52
2022-12-01T11:14:17.624Z,10.77
2022-12-01T11:16:47.095Z,10.95
2022-12-01T11:19:32.523Z,12.27
2022-12-01T11:22:00.841Z,11.02
2022-12-01T11:24:44.721Z,12.05
2022-12-01T11:28:01.706Z,11.35
2022-12-01T11:30:29.579Z,12.40
2022-12-01T11:33:00.574Z,12.35
2022-12-01T11:35:30.322Z,12.07
2022-12-01T11:38:29.304Z,11.80
2022-12-01T11:40:53.855Z,11.90
2022-12-01T11:43:42.613Z,12.27
2022-12-01T11:46:13.076Z,12.82
2022-12-01T11:48:39.541Z,13.13
2022-12-01T11:51:19.588Z,12.50
2022-12-01T11:53:46.296Z,12.55
2022-12-01T11:56:12.673Z,12.70
2022-12-01T11:58:39.223Z,11.10
2022-12-01T12:01:21.709Z,12.00
2022-12-01T12:04:17.795Z,11.45
2022-12-01T12:06:59.150Z,11.85
2022-12-01T12:09:54.475Z,11.80
2022-12-01T12:12:29.760Z,11.35
2022-12-01T12:14:58.873Z,11.48
2022-12-01T12:17:31.983Z,11.70
2022-12-01T12:20:08.830Z,11.52
2022-12-01T12:22:57.560Z,10.57
2022-12-01T12:25:31.063Z,11.38
2022-12-01T12:28:17.170Z,10.13
2022-12-01T12:31:05.348Z,10.23
2022-12-01T12:33:49.158Z,10.65
2022-12-01T12:36:31.870Z,9.98
2022-12-01T12:39:29.508Z,10.55
2022-12-01T12:41:56.783Z,10.02
2022-12-01T12:44:37.342Z,10.20
2022-12-01T12:47:30.193Z,10.23
2022-12-01T12:50:18.162Z,10.32
2022-12-01T12:52:47.830Z,9.43
2022-12-01T12:55:18.659Z,10.75
2022-12-01T12:57:58.288Z,10.85
2022-12-01T13:00:27.140Z,10.75
2022-12-01T13:05:49.155Z,10.63
2022-12-01T13:08:23.472Z,11.23
2022-12-01T13:11:20.367Z,10.93
2022-12-01T13:14:04.162Z,11.27
2022-12-01T13:16:34.466Z,12.05
2022-12-01T13:19:07.584Z,11.70
2022-12-01T13:21:37.510Z,11.02
2022-12-01T13:24:05.125Z,11.98
2022-12-01T13:26:34.818Z,10.98
2022-12-01T13:29:05.456Z,11.68
2022-12-01T13:31:42.384Z,11.98
2022-12-01T13:34:21.031Z,13.57
2022-12-01T13:36:52.113Z,12.02
2022-12-01T13:39:35.410Z,12.02
2022-12-01T13:42:07.578Z,10.70
2022-12-01T13:44:40.350Z,11.73
2022-12-01T13:47:09.778Z,11.57
2022-12-01T13:52:19.032Z,11.00
2022-12-01T13:55:07.382Z,12.18
2022-12-01T13:57:44.381Z,12.30
2022-12-01T14:00:28.521Z,12.80
2022-12-01T14:03:16.516Z,12.15
2022-12-01T14:06:05.515Z,12.25
2022-12-01T14:09:02.975Z,12.98
2022-12-01T14:11:29.903Z,12.98
2022-12-01T14:13:59.954Z,12.18
2022-12-01T14:16:45.755Z,13.55
2022-12-01T14:19:33.593Z,13.10
2022-12-01T14:22:01.129Z,12.90
2022-12-01T14:24:42.179Z,12.57
2022-12-01T14:27:11.691Z,12.55
2022-12-01T14:29:39.882Z,13.60
2022-12-01T14:32:09.095Z,13.80
2022-12-01T14:34:37.224Z,14.13
2022-12-01T14:37:12.366Z,14.30
2022-12-01T14:39:44.981Z,13.43
2022-12-01T14:42:11.445Z,13.85
2022-12-01T14:44:48.449Z,12.80
2022-12-01T14:47:23.970Z,14.20
2022-12-01T14:49:55.510Z,14.63
2022-12-01T14:52:40.186Z,14.43
2022-12-01T14:55:28.565Z,15.70
2022-12-01T14:58:05.126Z,14.50
2022-12-01T15:00:37.019Z,13.65
2022-12-01T15:03:09.501Z,15.07
2022-12-01T15:05:43.401Z,15.82
2022-12-01T15:08:42.020Z,13.43
2022-12-01T15:11:21.895Z,14.50
2022-12-01T15:13:53.867Z,15.35
2022-12-01T15:16:22.842Z,14.43
2022-12-01T15:18:49.990Z,13.85
2022-12-01T15:21:26.143Z,15.20
2022-12-01T15:24:04.108Z,14.32
2022-12-01T15:26:36.175Z,14.80
2022-12-01T15:29:46.760Z,13.63
2022-12-01T15:32:16.366Z,13.23
2022-12-01T15:34:44.899Z,13.50
2022-12-01T15:37:14.593Z,13.85
2022-12-01T15:39:48.437Z,14.07
2022-12-01T15:42:28.278Z,13.63
2022-12-01T15:45:21.681Z,15.02
2022-12-01T15:47:49.877Z,14.98
2022-12-01T15:50:29.468Z,14.25
2022-12-01T15:52:57.071Z,14.23
2022-12-01T15:55:54.153Z,16.38
2022-12-01T15:58:25.810Z,15.88
2022-12-01T16:01:19.287Z,15.27
2022-12-01T16:03:52.888Z,13.48
2022-12-01T16:06:20.903Z,13.75
2022-12-01T16:09:32.252Z,14.13
2022-12-01T16:12:17.636Z,15.35
2022-12-01T16:14:57.046Z,14.93
2022-12-01T16:17:24.106Z,14.98
2022-12-01T16:20:18.034Z,15.55
2022-12-01T16:22:51.772Z,15.77
2022-12-01T16:25:24.481Z,17.17
2022-12-01T16:27:52.945Z,18.67
2022-12-01T16:30:22.320Z,19.20
2022-12-01T16:35:29.162Z,20.35
2022-12-01T16:37:56.150Z,20.58
2022-12-01T16:40:22.807Z,19.17
2022-12-01T16:42:52.152Z,19.35
2022-12-01T16:45:19.523Z,20.80
2022-12-01T16:47:47.838Z,19.92
2022-12-01T16:50:19.377Z,20.33
2022-12-01T16:52:46.167Z,20.42
2022-12-01T16:55:26.791Z,20.10
2022-12-01T16:57:53.343Z,19.95
2022-12-01T17:00:29.186Z,20.65
2022-12-01T17:03:14.825Z,20.63
2022-12-01T17:05:41.314Z,20.65
2022-12-01T17:08:07.850Z,21.73
2022-12-01T17:10:34.374Z,19.48
2022-12-01T17:13:02.871Z,21.10
2022-12-01T17:15:30.399Z,20.33
2022-12-01T17:18:07.844Z,22.10
2022-12-01T17:20:40.520Z,21.95
2022-12-01T17:23:07.170Z,20.17
2022-12-01T17:25:33.642Z,20.60
2022-12-01T17:28:00.155Z,20.58
2022-12-01T17:30:26.565Z,22.95
2022-12-01T17:32:53.084Z,21.08
2022-12-01T17:35:22.351Z,22.15
2022-12-01T17:37:48.978Z,21.75
2022-12-01T17:40:15.613Z,23.33
2022-12-01T17:42:52.989Z,21.85
2022-12-01T17:45:20.344Z,22.25
2022-12-01T17:48:00.508Z,22.63
2022-12-01T17:50:27.118Z,23.08
2022-12-01T17:52:53.565Z,23.15
2022-12-01T17:55:20.273Z,22.60
2022-12-01T17:57:46.895Z,23.08
2022-12-01T18:00:15.063Z,23.75
2022-12-01T18:02:41.641Z,23.65
2022-12-01T18:05:08.725Z,24.27
2022-12-01T18:07:35.230Z,23.45
2022-12-01T18:10:18.546Z,23.13
2022-12-01T18:12:45.267Z,23.67
2022-12-01T18:15:12.527Z,24.13
2022-12-01T18:17:39.435Z,24.92
2022-12-01T18:20:07.005Z,24.70
2022-12-01T18:22:33.435Z,23.67
2022-12-01T18:24:59.948Z,24.20
2022-12-01T18:27:26.357Z,23.85
2022-12-01T18:29:52.952Z,23.33
2022-12-01T18:32:19.365Z,25.65
2022-12-01T18:34:45.829Z,24.27
2022-12-01T18:37:12.289Z,23.20
2022-12-01T18:39:38.725Z,24.30
2022-12-01T18:42:05.284Z,26.65
2022-12-01T18:44:31.920Z,25.13
2022-12-01T18:46:58.947Z,25.58
2022-12-01T18:49:25.542Z,24.75
2022-12-01T18:51:51.977Z,24.33
2022-12-01T18:54:18.517Z,25.83
2022-12-01T18:56:46.514Z,28.30
2022-12-01T18:59:24.590Z,26.30
2022-12-01T19:01:52.297Z,26.73
2022-12-01T19:04:18.932Z,26.17
2022-12-01T19:10:04.166Z,28.60
2022-12-01T19:12:30.614Z,28.30
2022-12-01T19:14:57.115Z,30.80
2022-12-01T19:17:23.786Z,27.05
2022-12-01T19:19:50.193Z,27.85
2022-12-01T19:22:17.501Z,26.42
2022-12-01T19:24:49.894Z,29.92
2022-12-01T19:27:20.383Z,29.45
2022-12-01T19:29:49.780Z,28.15
2022-12-01T19:32:18.810Z,25.77
2022-12-01T19:34:45.889Z,25.67
2022-12-01T19:37:14.059Z,25.50
2022-12-01T19:39:40.714Z,26.77
2022-12-01T19:42:08.064Z,25.23
2022-12-01T19:44:34.547Z,26.08
2022-12-01T19:47:00.999Z,26.05
2022-12-01T19:49:27.575Z,25.55
2022-12-01T19:51:53.985Z,27.05
2022-12-01T19:54:20.881Z,27.08
2022-12-01T19:56:47.349Z,26.60
2022-12-01T19:59:14.810Z,27.08
2022-12-01T20:01:41.363Z,27.02
2022-12-01T20:04:08.148Z,25.85
2022-12-01T20:06:35.974Z,25.70
2022-12-01T20:09:05.431Z,26.45
2022-12-01T20:11:35.445Z,27.95
2022-12-01T20:14:03.943Z,29.40
2022-12-01T20:16:30.927Z,28.77
2022-12-01T20:19:01.526Z,28.27
2022-12-01T20:21:31.327Z,27.02
2022-12-01T20:24:04.163Z,29.00
2022-12-01T20:26:33.241Z,29.02
2022-12-01T20:29:03.398Z,27.38
2022-12-01T20:31:31.299Z,28.00
2022-12-01T20:33:59.911Z,28.35
2022-12-01T20:36:27.062Z,27.83
2022-12-01T20:38:54.308Z,29.52
2022-12-01T20:41:21.527Z,27.25
2022-12-01T20:43:48.363Z,26.88
2022-12-01T20:46:15.308Z,27.65
2022-12-01T20:48:42.045Z,28.83
2022-12-01T20:51:09.245Z,27.95
2022-12-01T20:54:19.739Z,27.27
2022-12-01T20:56:38.050Z,27.40
2022-12-01T20:59:04.567Z,26.48
2022-12-01T21:01:31.963Z,27.55
2022-12-01T21:03:58.638Z,26.95
2022-12-01T21:06:25.310Z,28.63
2022-12-01T21:08:51.835Z,29.63
2022-12-01T21:11:46.203Z,28.02
2022-12-01T21:14:18.463Z,26.83
2022-12-01T21:16:48.914Z,28.88
2022-12-01T21:19:22.979Z,26.73
2022-12-01T21:21:49.496Z,28.38
2022-12-01T21:24:22.071Z,28.27
2022-12-01T21:27:02.155Z,28.10
2022-12-01T21:29:38.684Z,30.05
2022-12-01T21:32:26.019Z,27.90
2022-12-01T21:34:54.064Z,27.92
2022-12-01T21:37:22.680Z,26.67
2022-12-01T21:39:50.926Z,29.08
2022-12-01T21:42:28.081Z,27.67
2022-12-01T21:44:56.062Z,28.63
2022-12-01T21:47:24.543Z,27.17
2022-12-01T21:49:54.130Z,27.90
2022-12-01T21:52:42.501Z,27.65
2022-12-01T21:55:29.223Z,27.43
2022-12-01T21:57:59.976Z,28.02
2022-12-01T22:00:32.403Z,27.40
2022-12-01T22:03:07.868Z,26.70
2022-12-01T22:06:01.045Z,27.38
2022-12-01T22:08:35.439Z,27.95
2022-12-01T22:11:11.366Z,27.80
2022-12-01T22:13:44.955Z,28.98
2022-12-01T22:16:15.248Z,27.25
2022-12-01T22:18:44.714Z,28.15
2022-12-01T22:23:46.725Z,28.17
2022-12-01T22:26:19.748Z,26.98
2022-12-01T22:28:47.642Z,27.83
2022-12-01T22:31:15.856Z,28.88
2022-12-01T22:33:42.413Z,27.65
2022-12-01T22:36:29.594Z,28.67
2022-12-01T22:38:57.438Z,27.88
2022-12-01T22:41:23.979Z,27.77
2022-12-01T22:43:57.540Z,28.33
2022-12-01T22:46:32.637Z,26.52
2022-12-01T22:49:20.089Z,28.55
2022-12-01T22:51:59.810Z,27.17
2022-12-01T22:54:32.700Z,26.27
2022-12-01T22:57:25.244Z,26.83
2022-12-01T22:59:58.558Z,27.23
2022-12-01T23:02:37.961Z,27.90
2022-12-01T23:05:28.106Z,27.05
2022-12-01T23:10:27.298Z,27.02
2022-12-01T23:12:58.680Z,26.55
2022-12-01T23:15:41.871Z,28.10
2022-12-01T23:18:22.993Z,26.77
2022-12-01T23:20:58.801Z,26.48
2022-12-01T23:23:36.309Z,27.42
2022-12-01T23:26:09.734Z,27.98
2022-12-01T23:28:40.608Z,26.80
2022-12-01T23:31:11.615Z,27.73
2022-12-01T23:33:40.993Z,27.40
2022-12-01T23:36:37.571Z,27.25
2022-12-01T23:39:13.666Z,26.48
2022-12-01T23:41:46.634Z,26.50
2022-12-01T23:44:26.449Z,27.58
2022-12-01T23:46:55.733Z,26.70
2022-12-01T23:49:33.710Z,27.17
2022-12-01T23:52:01.230Z,26.80
2022-12-01T23:54:32.747Z,27.45
2022-12-01T23:57:27.643Z,27.27
